sensor_id;sensor_type;location;lat;lon;timestamp;P1;durP1;ratioP1;P2;durP2;ratioP2
74059;SDS011;62414;53.436;8.828;2023-04-24T00:00:40;9.45;;;4.70;;
74059;SDS011;62414;53.436;8.828;2023-04-24T00:03:06;9.40;;;4.90;;
74059;SDS011;62414;53.436;8.828;2023-04-24T00:05:31;8.83;;;4.37;;
74059;SDS011;62414;53.436;8.828;2023-04-24T00:07:57;8.52;;;4.50;;
74059;SDS011;62414;53.436;8.828;2023-04-24T00:10:22;9.20;;;4.50;;
74059;SDS011;62414;53.436;8.828;2023-04-24T00:12:48;8.27;;;3.80;;
74059;SDS011;62414;53.436;8.828;2023-04-24T00:15:14;7.32;;;3.63;;
74059;SDS011;62414;53.436;8.828;2023-04-24T00:17:40;7.97;;;3.93;;
74059;SDS011;62414;53.436;8.828;2023-04-24T00:20:06;8.38;;;4.00;;
74059;SDS011;62414;53.436;8.828;2023-04-24T00:22:32;6.80;;;3.33;;
74059;SDS011;62414;53.436;8.828;2023-04-24T00:24:57;6.30;;;3.10;;
74059;SDS011;62414;53.436;8.828;2023-04-24T00:27:23;7.03;;;3.60;;
74059;SDS011;62414;53.436;8.828;2023-04-24T00:29:49;6.88;;;3.58;;
74059;SDS011;62414;53.436;8.828;2023-04-24T00:32:15;8.03;;;3.70;;
74059;SDS011;62414;53.436;8.828;2023-04-24T00:34:41;7.40;;;3.17;;
74059;SDS011;62414;53.436;8.828;2023-04-24T00:37:07;6.43;;;2.97;;
74059;SDS011;62414;53.436;8.828;2023-04-24T00:39:32;5.33;;;2.60;;
74059;SDS011;62414;53.436;8.828;2023-04-24T00:41:58;5.50;;;2.70;;
74059;SDS011;62414;53.436;8.828;2023-04-24T00:44:23;5.70;;;2.53;;
74059;SDS011;62414;53.436;8.828;2023-04-24T00:46:49;5.88;;;2.50;;
74059;SDS011;62414;53.436;8.828;2023-04-24T00:49:16;5.60;;;2.43;;
74059;SDS011;62414;53.436;8.828;2023-04-24T00:51:43;5.00;;;2.50;;
74059;SDS011;62414;53.436;8.828;2023-04-24T00:54:08;5.07;;;2.60;;
74059;SDS011;62414;53.436;8.828;2023-04-24T00:56:33;5.17;;;2.57;;
74059;SDS011;62414;53.436;8.828;2023-04-24T00:58:59;5.68;;;2.70;;
74059;SDS011;62414;53.436;8.828;2023-04-24T01:01:24;5.93;;;2.70;;
74059;SDS011;62414;53.436;8.828;2023-04-24T01:03:50;5.57;;;2.70;;
74059;SDS011;62414;53.436;8.828;2023-04-24T01:06:17;6.13;;;2.55;;
74059;SDS011;62414;53.436;8.828;2023-04-24T01:08:43;5.32;;;2.67;;
74059;SDS011;62414;53.436;8.828;2023-04-24T01:11:10;5.63;;;2.28;;
74059;SDS011;62414;53.436;8.828;2023-04-24T01:13:37;5.38;;;2.65;;
74059;SDS011;62414;53.436;8.828;2023-04-24T01:16:02;4.80;;;2.60;;
74059;SDS011;62414;53.436;8.828;2023-04-24T01:18:28;5.80;;;2.80;;
74059;SDS011;62414;53.436;8.828;2023-04-24T01:20:55;6.20;;;3.22;;
74059;SDS011;62414;53.436;8.828;2023-04-24T01:23:24;5.68;;;3.00;;
74059;SDS011;62414;53.436;8.828;2023-04-24T01:25:50;6.00;;;3.27;;
74059;SDS011;62414;53.436;8.828;2023-04-24T01:28:17;5.30;;;2.85;;
74059;SDS011;62414;53.436;8.828;2023-04-24T01:30:43;5.10;;;2.70;;
74059;SDS011;62414;53.436;8.828;2023-04-24T01:33:08;4.40;;;2.37;;
74059;SDS011;62414;53.436;8.828;2023-04-24T01:35:34;5.53;;;2.50;;
74059;SDS011;62414;53.436;8.828;2023-04-24T01:37:59;4.97;;;2.50;;
74059;SDS011;62414;53.436;8.828;2023-04-24T01:40:26;4.70;;;2.50;;
74059;SDS011;62414;53.436;8.828;2023-04-24T01:42:52;4.70;;;2.30;;
74059;SDS011;62414;53.436;8.828;2023-04-24T01:45:17;4.13;;;2.10;;
74059;SDS011;62414;53.436;8.828;2023-04-24T01:47:43;5.23;;;2.50;;
74059;SDS011;62414;53.436;8.828;2023-04-24T01:50:09;5.03;;;2.30;;
74059;SDS011;62414;53.436;8.828;2023-04-24T01:52:34;4.27;;;2.17;;
74059;SDS011;62414;53.436;8.828;2023-04-24T01:55:00;4.80;;;2.42;;
74059;SDS011;62414;53.436;8.828;2023-04-24T01:57:27;4.27;;;2.50;;
74059;SDS011;62414;53.436;8.828;2023-04-24T01:59:52;3.72;;;2.20;;
74059;SDS011;62414;53.436;8.828;2023-04-24T02:02:18;4.30;;;2.30;;
74059;SDS011;62414;53.436;8.828;2023-04-24T02:04:43;3.77;;;2.30;;
74059;SDS011;62414;53.436;8.828;2023-04-24T02:07:09;4.47;;;2.53;;
74059;SDS011;62414;53.436;8.828;2023-04-24T02:09:34;4.20;;;2.50;;
74059;SDS011;62414;53.436;8.828;2023-04-24T02:12:00;4.83;;;2.40;;
74059;SDS011;62414;53.436;8.828;2023-04-24T02:14:26;4.95;;;2.80;;
74059;SDS011;62414;53.436;8.828;2023-04-24T02:16:52;4.77;;;2.50;;
74059;SDS011;62414;53.436;8.828;2023-04-24T02:19:17;4.60;;;2.47;;
74059;SDS011;62414;53.436;8.828;2023-04-24T02:21:43;5.00;;;2.67;;
74059;SDS011;62414;53.436;8.828;2023-04-24T02:24:08;4.57;;;2.60;;
74059;SDS011;62414;53.436;8.828;2023-04-24T02:26:34;4.45;;;2.50;;
74059;SDS011;62414;53.436;8.828;2023-04-24T02:28:59;4.37;;;2.50;;
74059;SDS011;62414;53.436;8.828;2023-04-24T02:31:26;4.23;;;2.40;;
74059;SDS011;62414;53.436;8.828;2023-04-24T02:33:51;4.68;;;2.60;;
74059;SDS011;62414;53.436;8.828;2023-04-24T02:36:17;4.73;;;2.60;;
74059;SDS011;62414;53.436;8.828;2023-04-24T02:38:42;9.23;;;3.07;;
74059;SDS011;62414;53.436;8.828;2023-04-24T02:41:07;4.67;;;2.47;;
74059;SDS011;62414;53.436;8.828;2023-04-24T02:43:33;4.67;;;2.63;;
74059;SDS011;62414;53.436;8.828;2023-04-24T02:45:58;4.20;;;2.30;;
74059;SDS011;62414;53.436;8.828;2023-04-24T02:48:25;5.00;;;2.60;;
74059;SDS011;62414;53.436;8.828;2023-04-24T02:50:51;5.07;;;2.50;;
74059;SDS011;62414;53.436;8.828;2023-04-24T02:53:16;5.78;;;2.78;;
74059;SDS011;62414;53.436;8.828;2023-04-24T02:55:42;5.10;;;2.63;;
74059;SDS011;62414;53.436;8.828;2023-04-24T02:58:07;6.33;;;2.60;;
74059;SDS011;62414;53.436;8.828;2023-04-24T03:00:33;4.53;;;2.42;;
74059;SDS011;62414;53.436;8.828;2023-04-24T03:02:58;6.33;;;2.70;;
74059;SDS011;62414;53.436;8.828;2023-04-24T03:05:25;4.80;;;2.50;;
74059;SDS011;62414;53.436;8.828;2023-04-24T03:07:50;5.15;;;2.60;;
74059;SDS011;62414;53.436;8.828;2023-04-24T03:10:16;4.57;;;2.40;;
74059;SDS011;62414;53.436;8.828;2023-04-24T03:12:41;4.73;;;2.43;;
74059;SDS011;62414;53.436;8.828;2023-04-24T03:15:07;4.43;;;2.30;;
74059;SDS011;62414;53.436;8.828;2023-04-24T03:17:36;4.50;;;2.53;;
74059;SDS011;62414;53.436;8.828;2023-04-24T03:20:01;4.43;;;2.40;;
74059;SDS011;62414;53.436;8.828;2023-04-24T03:22:29;5.22;;;2.65;;
74059;SDS011;62414;53.436;8.828;2023-04-24T03:24:55;5.43;;;2.60;;
74059;SDS011;62414;53.436;8.828;2023-04-24T03:27:21;5.37;;;2.43;;
74059;SDS011;62414;53.436;8.828;2023-04-24T03:29:53;5.45;;;2.50;;
74059;SDS011;62414;53.436;8.828;2023-04-24T03:32:18;5.47;;;2.63;;
74059;SDS011;62414;53.436;8.828;2023-04-24T03:34:45;5.17;;;2.67;;
74059;SDS011;62414;53.436;8.828;2023-04-24T03:37:13;5.40;;;2.90;;
74059;SDS011;62414;53.436;8.828;2023-04-24T03:39:44;5.30;;;2.83;;
74059;SDS011;62414;53.436;8.828;2023-04-24T03:42:10;6.28;;;3.08;;
74059;SDS011;62414;53.436;8.828;2023-04-24T03:44:46;6.43;;;3.40;;
74059;SDS011;62414;53.436;8.828;2023-04-24T03:47:11;6.97;;;3.97;;
74059;SDS011;62414;53.436;8.828;2023-04-24T03:49:38;7.32;;;4.07;;
74059;SDS011;62414;53.436;8.828;2023-04-24T03:52:04;8.70;;;4.57;;
74059;SDS011;62414;53.436;8.828;2023-04-24T03:54:29;8.27;;;4.77;;
74059;SDS011;62414;53.436;8.828;2023-04-24T03:56:56;7.60;;;4.20;;
74059;SDS011;62414;53.436;8.828;2023-04-24T03:59:23;7.97;;;4.53;;
74059;SDS011;62414;53.436;8.828;2023-04-24T04:02:03;8.02;;;4.82;;
74059;SDS011;62414;53.436;8.828;2023-04-24T04:04:29;8.37;;;4.93;;
74059;SDS011;62414;53.436;8.828;2023-04-24T04:06:54;8.07;;;4.67;;
74059;SDS011;62414;53.436;8.828;2023-04-24T04:09:21;11.43;;;4.82;;
74059;SDS011;62414;53.436;8.828;2023-04-24T04:11:46;7.68;;;4.50;;
74059;SDS011;62414;53.436;8.828;2023-04-24T04:14:13;8.87;;;4.77;;
74059;SDS011;62414;53.436;8.828;2023-04-24T04:16:42;7.93;;;4.15;;
74059;SDS011;62414;53.436;8.828;2023-04-24T04:19:08;8.77;;;4.97;;
74059;SDS011;62414;53.436;8.828;2023-04-24T04:21:34;7.50;;;4.63;;
74059;SDS011;62414;53.436;8.828;2023-04-24T04:24:16;8.57;;;4.72;;
74059;SDS011;62414;53.436;8.828;2023-04-24T04:26:44;7.93;;;4.40;;
74059;SDS011;62414;53.436;8.828;2023-04-24T04:29:11;8.50;;;4.63;;
74059;SDS011;62414;53.436;8.828;2023-04-24T04:31:42;8.57;;;4.45;;
74059;SDS011;62414;53.436;8.828;2023-04-24T04:34:11;8.32;;;4.18;;
74059;SDS011;62414;53.436;8.828;2023-04-24T04:36:37;7.80;;;4.45;;
74059;SDS011;62414;53.436;8.828;2023-04-24T04:39:16;7.32;;;4.50;;
74059;SDS011;62414;53.436;8.828;2023-04-24T04:42:03;7.47;;;4.13;;
74059;SDS011;62414;53.436;8.828;2023-04-24T04:44:35;9.40;;;4.35;;
74059;SDS011;62414;53.436;8.828;2023-04-24T04:47:02;8.88;;;4.55;;
74059;SDS011;62414;53.436;8.828;2023-04-24T04:49:31;9.90;;;4.68;;
74059;SDS011;62414;53.436;8.828;2023-04-24T04:51:56;8.23;;;4.80;;
74059;SDS011;62414;53.436;8.828;2023-04-24T04:54:24;8.98;;;5.07;;
74059;SDS011;62414;53.436;8.828;2023-04-24T04:56:50;8.32;;;4.80;;
74059;SDS011;62414;53.436;8.828;2023-04-24T04:59:15;8.87;;;4.90;;
74059;SDS011;62414;53.436;8.828;2023-04-24T05:01:41;8.43;;;4.50;;
74059;SDS011;62414;53.436;8.828;2023-04-24T05:04:09;9.35;;;5.20;;
74059;SDS011;62414;53.436;8.828;2023-04-24T05:06:36;8.02;;;4.40;;
74059;SDS011;62414;53.436;8.828;2023-04-24T05:09:01;9.57;;;4.90;;
74059;SDS011;62414;53.436;8.828;2023-04-24T05:11:34;7.82;;;4.30;;
74059;SDS011;62414;53.436;8.828;2023-04-24T05:14:01;8.73;;;5.15;;
74059;SDS011;62414;53.436;8.828;2023-04-24T05:16:33;11.57;;;4.60;;
74059;SDS011;62414;53.436;8.828;2023-04-24T05:18:59;10.65;;;4.68;;
74059;SDS011;62414;53.436;8.828;2023-04-24T05:21:31;8.05;;;4.28;;
74059;SDS011;62414;53.436;8.828;2023-04-24T05:23:57;7.30;;;4.38;;
74059;SDS011;62414;53.436;8.828;2023-04-24T05:26:37;7.55;;;4.30;;
74059;SDS011;62414;53.436;8.828;2023-04-24T05:29:03;7.93;;;4.30;;
74059;SDS011;62414;53.436;8.828;2023-04-24T05:31:29;9.07;;;4.18;;
74059;SDS011;62414;53.436;8.828;2023-04-24T05:33:55;9.30;;;4.50;;
74059;SDS011;62414;53.436;8.828;2023-04-24T05:36:21;7.77;;;4.37;;
74059;SDS011;62414;53.436;8.828;2023-04-24T05:38:48;7.60;;;4.10;;
74059;SDS011;62414;53.436;8.828;2023-04-24T05:41:13;8.90;;;4.10;;
74059;SDS011;62414;53.436;8.828;2023-04-24T05:43:40;7.53;;;4.15;;
74059;SDS011;62414;53.436;8.828;2023-04-24T05:46:06;7.75;;;4.10;;
74059;SDS011;62414;53.436;8.828;2023-04-24T05:48:31;8.93;;;4.30;;
74059;SDS011;62414;53.436;8.828;2023-04-24T05:51:00;9.60;;;4.45;;
74059;SDS011;62414;53.436;8.828;2023-04-24T05:53:26;7.73;;;3.83;;
74059;SDS011;62414;53.436;8.828;2023-04-24T05:55:54;8.20;;;4.13;;
74059;SDS011;62414;53.436;8.828;2023-04-24T05:58:19;7.65;;;3.95;;
74059;SDS011;62414;53.436;8.828;2023-04-24T06:00:46;7.80;;;3.97;;
74059;SDS011;62414;53.436;8.828;2023-04-24T06:03:11;8.83;;;4.30;;
74059;SDS011;62414;53.436;8.828;2023-04-24T06:05:37;8.77;;;4.00;;
74059;SDS011;62414;53.436;8.828;2023-04-24T06:08:03;8.47;;;4.07;;
74059;SDS011;62414;53.436;8.828;2023-04-24T06:10:33;8.93;;;3.88;;
74059;SDS011;62414;53.436;8.828;2023-04-24T06:13:00;8.15;;;3.80;;
74059;SDS011;62414;53.436;8.828;2023-04-24T06:15:27;7.68;;;4.00;;
74059;SDS011;62414;53.436;8.828;2023-04-24T06:18:00;11.07;;;4.63;;
74059;SDS011;62414;53.436;8.828;2023-04-24T06:20:25;7.90;;;3.80;;
74059;SDS011;62414;53.436;8.828;2023-04-24T06:22:51;7.68;;;3.85;;
74059;SDS011;62414;53.436;8.828;2023-04-24T06:25:16;7.83;;;3.93;;
74059;SDS011;62414;53.436;8.828;2023-04-24T06:27:42;8.47;;;4.13;;
74059;SDS011;62414;53.436;8.828;2023-04-24T06:30:09;8.00;;;4.05;;
74059;SDS011;62414;53.436;8.828;2023-04-24T06:32:35;11.03;;;4.20;;
74059;SDS011;62414;53.436;8.828;2023-04-24T06:35:01;9.60;;;4.20;;
74059;SDS011;62414;53.436;8.828;2023-04-24T06:37:26;8.50;;;3.90;;
74059;SDS011;62414;53.436;8.828;2023-04-24T06:39:52;7.57;;;4.10;;
74059;SDS011;62414;53.436;8.828;2023-04-24T06:42:17;8.90;;;4.15;;
74059;SDS011;62414;53.436;8.828;2023-04-24T06:44:43;9.10;;;4.00;;
74059;SDS011;62414;53.436;8.828;2023-04-24T06:47:10;8.97;;;4.30;;
74059;SDS011;62414;53.436;8.828;2023-04-24T06:49:35;9.07;;;4.10;;
74059;SDS011;62414;53.436;8.828;2023-04-24T06:52:01;9.90;;;4.53;;
74059;SDS011;62414;53.436;8.828;2023-04-24T06:54:26;7.87;;;4.20;;
74059;SDS011;62414;53.436;8.828;2023-04-24T06:56:52;8.30;;;4.10;;
74059;SDS011;62414;53.436;8.828;2023-04-24T06:59:17;8.70;;;4.47;;
74059;SDS011;62414;53.436;8.828;2023-04-24T07:01:43;8.25;;;4.22;;
74059;SDS011;62414;53.436;8.828;2023-04-24T07:04:09;9.27;;;4.30;;
74059;SDS011;62414;53.436;8.828;2023-04-24T07:06:35;8.15;;;4.22;;
74059;SDS011;62414;53.436;8.828;2023-04-24T07:09:00;9.20;;;4.63;;
74059;SDS011;62414;53.436;8.828;2023-04-24T07:11:26;8.30;;;4.20;;
74059;SDS011;62414;53.436;8.828;2023-04-24T07:13:51;8.82;;;4.20;;
74059;SDS011;62414;53.436;8.828;2023-04-24T07:16:16;10.03;;;4.70;;
74059;SDS011;62414;53.436;8.828;2023-04-24T07:18:42;9.60;;;4.50;;
74059;SDS011;62414;53.436;8.828;2023-04-24T07:21:09;9.37;;;4.40;;
74059;SDS011;62414;53.436;8.828;2023-04-24T07:23:34;9.73;;;5.10;;
74059;SDS011;62414;53.436;8.828;2023-04-24T07:25:59;10.13;;;5.17;;
74059;SDS011;62414;53.436;8.828;2023-04-24T07:28:25;11.07;;;5.40;;
74059;SDS011;62414;53.436;8.828;2023-04-24T07:30:51;10.87;;;5.33;;
74059;SDS011;62414;53.436;8.828;2023-04-24T07:33:16;10.32;;;5.03;;
74059;SDS011;62414;53.436;8.828;2023-04-24T07:35:41;10.43;;;5.00;;
74059;SDS011;62414;53.436;8.828;2023-04-24T07:38:08;11.13;;;5.23;;
74059;SDS011;62414;53.436;8.828;2023-04-24T07:40:34;11.27;;;5.50;;
74059;SDS011;62414;53.436;8.828;2023-04-24T07:42:59;11.63;;;5.70;;
74059;SDS011;62414;53.436;8.828;2023-04-24T07:45:24;10.33;;;5.10;;
74059;SDS011;62414;53.436;8.828;2023-04-24T07:47:50;12.57;;;5.65;;
74059;SDS011;62414;53.436;8.828;2023-04-24T07:50:15;11.40;;;5.27;;
74059;SDS011;62414;53.436;8.828;2023-04-24T07:52:41;10.93;;;5.77;;
74059;SDS011;62414;53.436;8.828;2023-04-24T07:55:08;13.00;;;5.97;;
74059;SDS011;62414;53.436;8.828;2023-04-24T07:57:33;11.40;;;5.90;;
74059;SDS011;62414;53.436;8.828;2023-04-24T07:59:59;10.45;;;5.90;;
74059;SDS011;62414;53.436;8.828;2023-04-24T08:02:24;11.53;;;6.40;;
74059;SDS011;62414;53.436;8.828;2023-04-24T08:04:50;12.03;;;5.93;;
74059;SDS011;62414;53.436;8.828;2023-04-24T08:07:15;11.50;;;5.85;;
74059;SDS011;62414;53.436;8.828;2023-04-24T08:09:41;10.83;;;5.87;;
74059;SDS011;62414;53.436;8.828;2023-04-24T08:12:07;11.83;;;5.87;;
74059;SDS011;62414;53.436;8.828;2023-04-24T08:14:33;11.38;;;6.15;;
74059;SDS011;62414;53.436;8.828;2023-04-24T08:16:58;12.50;;;6.20;;
74059;SDS011;62414;53.436;8.828;2023-04-24T08:19:24;11.97;;;6.70;;
74059;SDS011;62414;53.436;8.828;2023-04-24T08:21:49;12.98;;;6.63;;
74059;SDS011;62414;53.436;8.828;2023-04-24T08:24:15;11.97;;;6.43;;
74059;SDS011;62414;53.436;8.828;2023-04-24T08:26:40;11.00;;;6.33;;
74059;SDS011;62414;53.436;8.828;2023-04-24T08:29:07;12.47;;;6.60;;
74059;SDS011;62414;53.436;8.828;2023-04-24T08:31:32;12.48;;;6.10;;
74059;SDS011;62414;53.436;8.828;2023-04-24T08:33:58;11.73;;;5.97;;
74059;SDS011;62414;53.436;8.828;2023-04-24T08:36:24;12.60;;;6.35;;
74059;SDS011;62414;53.436;8.828;2023-04-24T08:38:49;11.90;;;5.90;;
74059;SDS011;62414;53.436;8.828;2023-04-24T08:41:14;10.95;;;5.57;;
74059;SDS011;62414;53.436;8.828;2023-04-24T08:43:40;11.53;;;5.53;;
74059;SDS011;62414;53.436;8.828;2023-04-24T08:46:07;10.93;;;5.77;;
74059;SDS011;62414;53.436;8.828;2023-04-24T08:48:32;11.50;;;5.70;;
74059;SDS011;62414;53.436;8.828;2023-04-24T08:50:58;11.90;;;5.30;;
74059;SDS011;62414;53.436;8.828;2023-04-24T08:53:24;10.10;;;5.82;;
74059;SDS011;62414;53.436;8.828;2023-04-24T08:55:50;9.65;;;5.80;;
74059;SDS011;62414;53.436;8.828;2023-04-24T08:58:16;12.90;;;6.20;;
74059;SDS011;62414;53.436;8.828;2023-04-24T09:00:41;11.40;;;6.50;;
74059;SDS011;62414;53.436;8.828;2023-04-24T09:03:08;10.63;;;6.15;;
74059;SDS011;62414;53.436;8.828;2023-04-24T09:05:34;9.83;;;5.60;;
74059;SDS011;62414;53.436;8.828;2023-04-24T09:08:00;11.82;;;6.38;;
74059;SDS011;62414;53.436;8.828;2023-04-24T09:10:26;11.67;;;6.07;;
74059;SDS011;62414;53.436;8.828;2023-04-24T09:12:52;10.27;;;6.07;;
74059;SDS011;62414;53.436;8.828;2023-04-24T09:15:18;11.50;;;5.90;;
74059;SDS011;62414;53.436;8.828;2023-04-24T09:17:43;10.57;;;5.80;;
74059;SDS011;62414;53.436;8.828;2023-04-24T09:20:10;11.60;;;5.70;;
74059;SDS011;62414;53.436;8.828;2023-04-24T09:22:36;10.90;;;5.70;;
74059;SDS011;62414;53.436;8.828;2023-04-24T09:25:02;11.83;;;6.07;;
74059;SDS011;62414;53.436;8.828;2023-04-24T09:27:28;10.85;;;5.80;;
74059;SDS011;62414;53.436;8.828;2023-04-24T09:29:54;9.50;;;5.60;;
74059;SDS011;62414;53.436;8.828;2023-04-24T09:32:20;9.80;;;5.60;;
74059;SDS011;62414;53.436;8.828;2023-04-24T09:34:46;10.43;;;5.35;;
74059;SDS011;62414;53.436;8.828;2023-04-24T09:37:16;9.95;;;5.40;;
74059;SDS011;62414;53.436;8.828;2023-04-24T09:40:06;10.25;;;5.63;;
74059;SDS011;62414;53.436;8.828;2023-04-24T09:42:33;12.35;;;6.13;;
74059;SDS011;62414;53.436;8.828;2023-04-24T09:44:58;12.13;;;6.20;;
74059;SDS011;62414;53.436;8.828;2023-04-24T09:47:23;11.53;;;6.33;;
74059;SDS011;62414;53.436;8.828;2023-04-24T09:49:49;16.83;;;7.63;;
74059;SDS011;62414;53.436;8.828;2023-04-24T09:52:16;13.68;;;7.00;;
74059;SDS011;62414;53.436;8.828;2023-04-24T09:54:41;15.63;;;7.97;;
74059;SDS011;62414;53.436;8.828;2023-04-24T09:57:07;12.35;;;6.47;;
74059;SDS011;62414;53.436;8.828;2023-04-24T09:59:33;12.75;;;7.30;;
74059;SDS011;62414;53.436;8.828;2023-04-24T10:01:58;11.90;;;6.63;;
74059;SDS011;62414;53.436;8.828;2023-04-24T10:04:25;11.73;;;6.35;;
74059;SDS011;62414;53.436;8.828;2023-04-24T10:06:51;11.83;;;6.20;;
74059;SDS011;62414;53.436;8.828;2023-04-24T10:09:19;12.95;;;6.82;;
74059;SDS011;62414;53.436;8.828;2023-04-24T10:11:46;12.00;;;6.30;;
74059;SDS011;62414;53.436;8.828;2023-04-24T10:14:13;13.30;;;6.85;;
74059;SDS011;62414;53.436;8.828;2023-04-24T10:16:39;12.35;;;6.47;;
74059;SDS011;62414;53.436;8.828;2023-04-24T10:19:05;13.50;;;6.70;;
74059;SDS011;62414;53.436;8.828;2023-04-24T10:21:31;11.40;;;6.10;;
74059;SDS011;62414;53.436;8.828;2023-04-24T10:23:57;11.52;;;6.28;;
74059;SDS011;62414;53.436;8.828;2023-04-24T10:26:24;11.43;;;5.68;;
74059;SDS011;62414;53.436;8.828;2023-04-24T10:28:49;10.10;;;5.50;;
74059;SDS011;62414;53.436;8.828;2023-04-24T10:31:15;11.35;;;5.47;;
74059;SDS011;62414;53.436;8.828;2023-04-24T10:33:41;10.83;;;5.50;;
74059;SDS011;62414;53.436;8.828;2023-04-24T10:36:07;11.60;;;5.22;;
74059;SDS011;62414;53.436;8.828;2023-04-24T10:38:33;10.07;;;5.43;;
74059;SDS011;62414;53.436;8.828;2023-04-24T10:41:06;11.32;;;5.68;;
74059;SDS011;62414;53.436;8.828;2023-04-24T10:43:34;11.47;;;5.80;;
74059;SDS011;62414;53.436;8.828;2023-04-24T10:46:00;13.55;;;6.20;;
74059;SDS011;62414;53.436;8.828;2023-04-24T10:48:26;11.75;;;6.38;;
74059;SDS011;62414;53.436;8.828;2023-04-24T10:50:52;11.93;;;6.55;;
74059;SDS011;62414;53.436;8.828;2023-04-24T10:53:19;13.00;;;6.30;;
74059;SDS011;62414;53.436;8.828;2023-04-24T10:55:46;12.77;;;6.33;;
74059;SDS011;62414;53.436;8.828;2023-04-24T10:58:12;12.35;;;6.63;;
74059;SDS011;62414;53.436;8.828;2023-04-24T11:00:39;12.73;;;6.93;;
74059;SDS011;62414;53.436;8.828;2023-04-24T11:03:06;11.90;;;6.67;;
74059;SDS011;62414;53.436;8.828;2023-04-24T11:05:49;14.57;;;7.20;;
74059;SDS011;62414;53.436;8.828;2023-04-24T11:08:16;16.00;;;7.63;;
74059;SDS011;62414;53.436;8.828;2023-04-24T11:10:54;15.90;;;8.32;;
74059;SDS011;62414;53.436;8.828;2023-04-24T11:13:21;17.83;;;8.55;;
74059;SDS011;62414;53.436;8.828;2023-04-24T11:15:54;18.53;;;9.10;;
74059;SDS011;62414;53.436;8.828;2023-04-24T11:18:37;18.90;;;10.18;;
74059;SDS011;62414;53.436;8.828;2023-04-24T11:21:09;19.70;;;10.82;;
74059;SDS011;62414;53.436;8.828;2023-04-24T11:23:35;24.60;;;11.57;;
74059;SDS011;62414;53.436;8.828;2023-04-24T11:26:09;24.40;;;11.07;;
74059;SDS011;62414;53.436;8.828;2023-04-24T11:28:35;23.88;;;11.18;;
74059;SDS011;62414;53.436;8.828;2023-04-24T11:31:11;23.40;;;11.50;;
74059;SDS011;62414;53.436;8.828;2023-04-24T11:34:05;23.38;;;10.57;;
74059;SDS011;62414;53.436;8.828;2023-04-24T11:36:31;22.73;;;10.82;;
74059;SDS011;62414;53.436;8.828;2023-04-24T11:38:57;22.70;;;10.80;;
74059;SDS011;62414;53.436;8.828;2023-04-24T11:41:23;21.77;;;10.93;;
74059;SDS011;62414;53.436;8.828;2023-04-24T11:43:48;27.83;;;12.02;;
74059;SDS011;62414;53.436;8.828;2023-04-24T11:46:17;22.90;;;10.80;;
74059;SDS011;62414;53.436;8.828;2023-04-24T11:48:44;24.15;;;10.82;;
74059;SDS011;62414;53.436;8.828;2023-04-24T11:51:10;26.63;;;11.65;;
74059;SDS011;62414;53.436;8.828;2023-04-24T11:53:37;25.47;;;11.47;;
74059;SDS011;62414;53.436;8.828;2023-04-24T11:56:02;25.48;;;11.43;;
74059;SDS011;62414;53.436;8.828;2023-04-24T11:58:28;27.33;;;12.80;;
74059;SDS011;62414;53.436;8.828;2023-04-24T12:00:55;31.75;;;13.02;;
74059;SDS011;62414;53.436;8.828;2023-04-24T12:03:22;32.40;;;13.93;;
74059;SDS011;62414;53.436;8.828;2023-04-24T12:05:48;30.03;;;12.87;;
74059;SDS011;62414;53.436;8.828;2023-04-24T12:08:26;30.48;;;12.23;;
74059;SDS011;62414;53.436;8.828;2023-04-24T12:10:52;29.77;;;12.27;;
74059;SDS011;62414;53.436;8.828;2023-04-24T12:13:17;29.55;;;12.85;;
74059;SDS011;62414;53.436;8.828;2023-04-24T12:15:43;31.33;;;12.47;;
74059;SDS011;62414;53.436;8.828;2023-04-24T12:18:08;31.67;;;12.57;;
74059;SDS011;62414;53.436;8.828;2023-04-24T12:20:38;32.95;;;13.05;;
74059;SDS011;62414;53.436;8.828;2023-04-24T12:23:05;31.02;;;13.05;;
74059;SDS011;62414;53.436;8.828;2023-04-24T12:25:31;31.23;;;12.77;;
74059;SDS011;62414;53.436;8.828;2023-04-24T12:28:08;33.22;;;13.07;;
74059;SDS011;62414;53.436;8.828;2023-04-24T12:30:34;35.25;;;13.57;;
74059;SDS011;62414;53.436;8.828;2023-04-24T12:33:03;32.40;;;12.35;;
74059;SDS011;62414;53.436;8.828;2023-04-24T12:35:30;33.50;;;12.93;;
74059;SDS011;62414;53.436;8.828;2023-04-24T12:37:59;34.55;;;13.05;;
74059;SDS011;62414;53.436;8.828;2023-04-24T12:40:30;35.58;;;13.95;;
74059;SDS011;62414;53.436;8.828;2023-04-24T12:42:56;35.33;;;13.50;;
74059;SDS011;62414;53.436;8.828;2023-04-24T12:45:21;33.80;;;13.70;;
74059;SDS011;62414;53.436;8.828;2023-04-24T12:47:47;33.07;;;13.17;;
74059;SDS011;62414;53.436;8.828;2023-04-24T12:50:14;32.83;;;12.97;;
74059;SDS011;62414;53.436;8.828;2023-04-24T12:52:40;34.67;;;13.57;;
74059;SDS011;62414;53.436;8.828;2023-04-24T12:55:08;37.45;;;13.98;;
74059;SDS011;62414;53.436;8.828;2023-04-24T12:57:33;30.20;;;13.23;;
74059;SDS011;62414;53.436;8.828;2023-04-24T13:00:05;30.73;;;12.15;;
74059;SDS011;62414;53.436;8.828;2023-04-24T13:02:31;35.20;;;13.20;;
74059;SDS011;62414;53.436;8.828;2023-04-24T13:04:57;31.13;;;12.73;;
74059;SDS011;62414;53.436;8.828;2023-04-24T13:07:23;31.40;;;11.40;;
74059;SDS011;62414;53.436;8.828;2023-04-24T13:09:49;30.17;;;11.98;;
74059;SDS011;62414;53.436;8.828;2023-04-24T13:12:16;32.65;;;12.73;;
74059;SDS011;62414;53.436;8.828;2023-04-24T13:14:42;24.80;;;9.00;;
74059;SDS011;62414;53.436;8.828;2023-04-24T13:17:07;15.45;;;6.20;;
74059;SDS011;62414;53.436;8.828;2023-04-24T13:19:35;13.90;;;5.67;;
74059;SDS011;62414;53.436;8.828;2023-04-24T13:22:01;17.67;;;6.18;;
74059;SDS011;62414;53.436;8.828;2023-04-24T13:24:26;16.23;;;6.37;;
74059;SDS011;62414;53.436;8.828;2023-04-24T13:26:52;17.43;;;7.10;;
74059;SDS011;62414;53.436;8.828;2023-04-24T13:29:19;23.70;;;8.37;;
74059;SDS011;62414;53.436;8.828;2023-04-24T13:31:45;26.27;;;10.40;;
74059;SDS011;62414;53.436;8.828;2023-04-24T13:34:11;23.10;;;9.00;;
74059;SDS011;62414;53.436;8.828;2023-04-24T13:36:36;22.97;;;8.93;;
74059;SDS011;62414;53.436;8.828;2023-04-24T13:39:02;23.37;;;9.00;;
74059;SDS011;62414;53.436;8.828;2023-04-24T13:41:27;26.60;;;10.17;;
74059;SDS011;62414;53.436;8.828;2023-04-24T13:43:53;26.23;;;9.90;;
74059;SDS011;62414;53.436;8.828;2023-04-24T13:46:19;25.83;;;9.83;;
74059;SDS011;62414;53.436;8.828;2023-04-24T13:48:45;24.65;;;10.65;;
74059;SDS011;62414;53.436;8.828;2023-04-24T13:51:10;26.13;;;10.63;;
74059;SDS011;62414;53.436;8.828;2023-04-24T13:53:36;33.07;;;12.70;;
74059;SDS011;62414;53.436;8.828;2023-04-24T13:56:01;28.00;;;11.02;;
74059;SDS011;62414;53.436;8.828;2023-04-24T13:58:27;24.93;;;11.10;;
74059;SDS011;62414;53.436;8.828;2023-04-24T14:00:52;29.70;;;12.00;;
74059;SDS011;62414;53.436;8.828;2023-04-24T14:03:19;26.77;;;11.93;;
74059;SDS011;62414;53.436;8.828;2023-04-24T14:05:44;26.67;;;10.97;;
74059;SDS011;62414;53.436;8.828;2023-04-24T14:08:10;30.05;;;11.75;;
74059;SDS011;62414;53.436;8.828;2023-04-24T14:10:35;33.40;;;12.30;;
74059;SDS011;62414;53.436;8.828;2023-04-24T14:13:01;31.80;;;11.43;;
74059;SDS011;62414;53.436;8.828;2023-04-24T14:15:26;29.23;;;11.77;;
74059;SDS011;62414;53.436;8.828;2023-04-24T14:17:52;29.47;;;11.43;;
74059;SDS011;62414;53.436;8.828;2023-04-24T14:20:18;27.23;;;11.03;;
74059;SDS011;62414;53.436;8.828;2023-04-24T14:22:44;34.00;;;11.73;;
74059;SDS011;62414;53.436;8.828;2023-04-24T14:25:09;30.07;;;11.07;;
74059;SDS011;62414;53.436;8.828;2023-04-24T14:27:35;31.17;;;11.60;;
74059;SDS011;62414;53.436;8.828;2023-04-24T14:30:00;34.20;;;12.60;;
74059;SDS011;62414;53.436;8.828;2023-04-24T14:32:26;34.07;;;12.60;;
74059;SDS011;62414;53.436;8.828;2023-04-24T14:34:51;31.87;;;11.87;;